createdAt,value
2019-04-10T00:00:44.309Z,54.3
2019-04-10T00:05:31.927Z,57.5
2019-04-10T00:10:19.521Z,60.1
2019-04-10T00:15:07.229Z,63.4
2019-04-10T00:19:54.493Z,65.7
2019-04-10T00:23:55.538Z,72.6
2019-04-10T00:24:11.529Z,72.7
2019-04-10T00:24:28.102Z,72.8
2019-04-10T00:24:44.236Z,72.2
2019-04-10T00:25:00.146Z,71.1
2019-04-10T00:25:16.774Z,70.1
2019-04-10T00:25:32.868Z,68.9
2019-04-10T00:25:48.833Z,67.3
2019-04-10T00:26:05.469Z,65.6
2019-04-10T00:27:07.807Z,57.9
2019-04-10T00:31:56.297Z,44
2019-04-10T00:36:43.610Z,46.5
2019-04-10T00:41:32.285Z,50.4
2019-04-10T00:46:21.834Z,54.4
2019-04-10T00:51:09.279Z,57.6
2019-04-10T00:55:58.112Z,60.5
2019-04-10T01:00:45.564Z,62.3
2019-04-10T01:05:33.416Z,66.1
2019-04-10T01:09:34.347Z,73.9
2019-04-10T01:09:50.033Z,74.1
2019-04-10T01:10:06.059Z,73.8
2019-04-10T01:10:22.029Z,72.9
2019-04-10T01:10:38.753Z,71.9
2019-04-10T01:10:54.726Z,70.5
2019-04-10T01:11:10.705Z,68.6
2019-04-10T01:11:27.347Z,66.7
2019-04-10T01:12:30.077Z,56.7
2019-04-10T01:17:19.634Z,44.4
2019-04-10T01:22:07.295Z,46.8
2019-04-10T01:26:54.531Z,51.1
2019-04-10T01:31:41.473Z,55.2
2019-04-10T01:36:29.177Z,57.7
2019-04-10T01:41:17.349Z,61.9
2019-04-10T01:46:06.176Z,64.5
2019-04-10T01:50:55.319Z,67.3
2019-04-10T01:54:55.949Z,70.5
2019-04-10T01:55:20.065Z,69.2
2019-04-10T01:55:38.852Z,67.6
2019-04-10T01:55:55.465Z,65.9
2019-04-10T01:56:57.844Z,56.1
2019-04-10T02:01:45.000Z,43.9
2019-04-10T02:06:32.311Z,46.7
2019-04-10T02:11:19.676Z,50.6
2019-04-10T02:16:08.242Z,55
2019-04-10T02:20:56.117Z,58
2019-04-10T02:25:45.089Z,61
2019-04-10T02:30:33.011Z,63.4
2019-04-10T02:35:24.540Z,66.6
2019-04-10T02:39:32.285Z,69
2019-04-10T02:39:57.911Z,67.2
2019-04-10T02:41:03.549Z,58.1
2019-04-10T02:45:51.286Z,44.2
2019-04-10T02:50:38.161Z,47.1
2019-04-10T02:55:27.242Z,51.6
2019-04-10T03:00:14.537Z,55.5
2019-04-10T03:05:01.833Z,59.2
2019-04-10T03:10:02.429Z,63.1
2019-04-10T03:14:55.870Z,66.3
2019-04-10T03:18:56.924Z,68.8
2019-04-10T03:19:13.692Z,67.1
2019-04-10T03:20:16.207Z,57.8
2019-04-10T03:25:03.074Z,44.6
2019-04-10T03:29:52.069Z,47
2019-04-10T03:34:40.689Z,51.9
2019-04-10T03:39:33.360Z,55
2019-04-10T03:44:22.849Z,58.9
2019-04-10T03:49:10.236Z,62.9
2019-04-10T03:53:59.566Z,65.9
2019-04-10T03:58:00.813Z,70.5
2019-04-10T03:58:17.553Z,69.1
2019-04-10T03:58:33.615Z,67.3
2019-04-10T03:58:49.576Z,65.4
2019-04-10T03:59:06.274Z,61.2
2019-04-10T04:00:08.591Z,56.2
2019-04-10T04:04:56.105Z,43.4
2019-04-10T04:09:43.922Z,46.4
2019-04-10T04:14:30.980Z,50.8
2019-04-10T04:19:20.113Z,54.2
2019-04-10T04:24:09.581Z,57.6
2019-04-10T04:28:56.555Z,61.4
2019-04-10T04:33:44.777Z,63.4
2019-04-10T04:38:32.280Z,65.9
2019-04-10T04:42:33.426Z,75.1
2019-04-10T04:42:49.528Z,75
2019-04-10T04:43:05.651Z,75
2019-04-10T04:43:21.860Z,73.6
2019-04-10T04:43:42.405Z,72.3
2019-04-10T04:44:00.206Z,70.5
2019-04-10T04:44:15.775Z,66.7
2019-04-10T04:44:31.297Z,66.4
2019-04-10T04:44:47.750Z,64.5
2019-04-10T04:45:53.147Z,56.9
2019-04-10T04:50:41.650Z,43.9
2019-04-10T04:55:29.046Z,46.9
2019-04-10T05:00:17.391Z,50.9
2019-04-10T05:05:04.831Z,53.9
2019-04-10T05:09:52.542Z,58.9
2019-04-10T05:14:40.032Z,62
2019-04-10T05:19:27.543Z,64.9
2019-04-10T05:23:28.832Z,74.1
2019-04-10T05:23:44.422Z,74.6
2019-04-10T05:24:00.101Z,74.3
2019-04-10T05:24:15.822Z,73.7
2019-04-10T05:24:32.012Z,72.8
2019-04-10T05:24:48.742Z,71.5
2019-04-10T05:25:04.839Z,69.4
2019-04-10T05:25:21.055Z,67.2
2019-04-10T05:25:37.577Z,64.6
2019-04-10T05:26:42.729Z,57.3
2019-04-10T05:31:30.161Z,44.2
2019-04-10T05:36:17.439Z,46.6
2019-04-10T05:41:04.809Z,50.8
2019-04-10T05:45:51.670Z,54.8
2019-04-10T05:50:39.853Z,57.9
2019-04-10T05:55:28.887Z,60.9
2019-04-10T06:00:16.714Z,63.2
2019-04-10T06:05:03.903Z,64.8
2019-04-10T06:09:55.789Z,65.7
2019-04-10T06:14:03.086Z,68
2019-04-10T06:14:18.852Z,64.6
2019-04-10T06:15:21.159Z,57.3
2019-04-10T06:20:09.152Z,44.8
2019-04-10T06:24:56.531Z,46.5
2019-04-10T06:29:44.995Z,50.3
2019-04-10T06:34:34.500Z,53.3
2019-04-10T06:39:21.915Z,56.1
2019-04-10T06:44:09.917Z,57.9
2019-04-10T06:48:58.469Z,59.6
2019-04-10T06:53:47.906Z,60.7
2019-04-10T06:58:42.395Z,61
2019-04-10T07:03:45.769Z,61.5
2019-04-10T07:08:45.448Z,61.4
2019-04-10T07:13:38.748Z,62
2019-04-10T07:18:26.926Z,61.4
2019-04-10T07:23:19.145Z,61.9
2019-04-10T07:28:11.961Z,59.6
2019-04-10T07:32:59.906Z,58.6
2019-04-10T07:37:51.604Z,57.8
2019-04-10T07:42:43.343Z,58.2
2019-04-10T07:47:31.434Z,57.1
2019-04-10T07:52:21.089Z,57
2019-04-10T07:57:11.806Z,56.6
2019-04-10T08:02:00.075Z,56.7
2019-04-10T08:06:48.439Z,56.4
2019-04-10T08:11:38.005Z,55.7
2019-04-10T08:16:25.431Z,54.7
2019-04-10T08:21:15.596Z,53.9
2019-04-10T08:26:03.869Z,53.5
2019-04-10T08:30:51.190Z,52.2
2019-04-10T08:35:39.887Z,52.9
2019-04-10T08:40:27.873Z,51.8
2019-04-10T08:45:15.352Z,49.7
2019-04-10T08:50:03.590Z,50.4
2019-04-10T08:54:53.212Z,48.4
2019-04-10T08:59:40.324Z,47.5
2019-04-10T09:04:28.702Z,47.6
2019-04-10T09:09:17.249Z,47.4
2019-04-10T09:14:05.180Z,46.5
2019-04-10T09:18:52.351Z,45.4
2019-04-10T09:23:47.288Z,44.1
2019-04-10T09:28:40.259Z,43.2
2019-04-10T09:33:30.528Z,43
2019-04-10T09:38:20.875Z,44.2
2019-04-10T09:43:11.252Z,44.7
2019-04-10T09:47:59.912Z,43.5
2019-04-10T09:52:48.254Z,42.1
2019-04-10T09:57:36.603Z,40.6
2019-04-10T10:02:25.225Z,41.5
2019-04-10T10:07:12.447Z,43
2019-04-10T10:12:01.429Z,42.7
2019-04-10T10:16:48.913Z,43.2
2019-04-10T10:21:36.687Z,43.5
2019-04-10T10:26:24.007Z,40.9
2019-04-10T10:31:11.694Z,41.6
2019-04-10T10:35:59.840Z,42.2
2019-04-10T10:40:46.930Z,39.6
2019-04-10T10:45:34.636Z,37.8
2019-04-10T10:50:22.257Z,37.8
2019-04-10T10:55:11.531Z,38.1
2019-04-10T10:59:59.856Z,39.8
2019-04-10T11:04:47.536Z,41
2019-04-10T11:09:35.961Z,39.2
2019-04-10T11:14:26.151Z,38.6
2019-04-10T11:19:13.361Z,37.1
2019-04-10T11:24:00.963Z,36
2019-04-10T11:28:49.627Z,33.9
2019-04-10T11:33:39.835Z,35.6
2019-04-10T11:38:29.070Z,36.6
2019-04-10T11:43:16.660Z,36.7
2019-04-10T11:48:03.727Z,34.5
2019-04-10T11:52:53.394Z,32.2
2019-04-10T11:57:45.891Z,32.6
2019-04-10T12:02:34.967Z,33.5
2019-04-10T12:14:43.958Z,34.7
2019-04-10T12:19:31.119Z,34.3
2019-04-10T12:24:19.556Z,31.5
2019-04-10T12:29:06.726Z,32.7
2019-04-10T12:33:53.631Z,33
2019-04-10T12:38:41.598Z,33.4
2019-04-10T12:43:32.563Z,31.4
2019-04-10T12:48:20.826Z,31.6
2019-04-10T12:53:09.471Z,31.3
2019-04-10T12:58:06.490Z,32.2
2019-04-10T13:03:00.795Z,31.7
2019-04-10T13:07:47.809Z,32
2019-04-10T13:12:35.483Z,29.8
2019-04-10T13:17:25.414Z,32.1
2019-04-10T13:22:12.711Z,32.2
2019-04-10T13:26:59.863Z,32.8
2019-04-10T13:31:48.801Z,30.9
2019-04-10T13:36:36.039Z,30.1
2019-04-10T13:41:24.186Z,28.7
2019-04-10T13:46:12.935Z,29
2019-04-10T13:51:01.237Z,27.6
2019-04-10T13:55:48.898Z,28.3
2019-04-10T14:00:38.750Z,28.9
2019-04-10T14:05:27.628Z,29.1
2019-04-10T14:10:15.244Z,28.7
2019-04-10T14:15:04.899Z,29.9
2019-04-10T14:19:52.189Z,29.7
2019-04-10T14:24:44.735Z,29.2
2019-04-10T14:29:35.402Z,27.5
2019-04-10T14:34:22.842Z,27.4
2019-04-10T14:39:16.746Z,27
2019-04-10T14:44:06.229Z,29
2019-04-10T14:48:55.163Z,29.8
2019-04-10T14:53:43.628Z,31.9
2019-04-10T14:58:32.393Z,32
2019-04-10T15:03:22.483Z,31.7
2019-04-10T15:08:09.448Z,33.1
2019-04-10T15:13:06.908Z,32.1
2019-04-10T15:17:58.352Z,31
2019-04-10T15:22:45.569Z,29.9
2019-04-10T15:27:33.323Z,30.1
2019-04-10T15:32:22.344Z,31.4
2019-04-10T15:37:11.089Z,31.4
2019-04-10T15:41:58.113Z,32.7
2019-04-10T15:46:46.272Z,33.3
2019-04-10T15:51:33.510Z,34.2
2019-04-10T15:56:22.099Z,35.6
2019-04-10T16:01:09.798Z,37.4
2019-04-10T16:05:57.767Z,37.7
2019-04-10T16:10:46.198Z,37.7
2019-04-10T16:15:33.216Z,39.4
2019-04-10T16:20:20.390Z,40.5
2019-04-10T16:25:07.783Z,40.9
2019-04-10T16:29:54.623Z,43.3
2019-04-10T16:34:42.883Z,43.7
2019-04-10T16:39:30.095Z,43.8
2019-04-10T16:44:19.151Z,43.9
2019-04-10T16:49:06.613Z,42.9
2019-04-10T16:53:53.774Z,43.6
2019-04-10T16:58:41.717Z,43.5
2019-04-10T17:03:30.981Z,44.1
2019-04-10T17:08:18.060Z,45.4
2019-04-10T17:13:07.319Z,44.6
2019-04-10T17:17:55.370Z,45
2019-04-10T17:22:46.851Z,45.1
2019-04-10T17:27:35.335Z,46.4
2019-04-10T17:32:23.430Z,47.3
2019-04-10T17:37:11.779Z,46.4
2019-04-10T17:42:00.680Z,46.8
2019-04-10T17:46:49.115Z,47.3
2019-04-10T17:51:36.381Z,47.1
2019-04-10T17:56:24.500Z,47.1
2019-04-10T18:01:12.572Z,46.4
2019-04-10T18:06:01.346Z,46.5
2019-04-10T18:10:51.125Z,47
2019-04-10T18:15:41.204Z,47.1
2019-04-10T18:20:28.598Z,48.3
2019-04-10T18:25:15.925Z,49
2019-04-10T18:30:03.800Z,49.6
2019-04-10T18:34:52.127Z,50.3
2019-04-10T18:39:39.513Z,51.4
2019-04-10T18:44:28.956Z,51.4
2019-04-10T18:49:19.009Z,51.6
2019-04-10T18:54:06.326Z,51.4
2019-04-10T18:58:54.241Z,51.5
2019-04-10T19:03:49.402Z,51.8
2019-04-10T19:08:41.931Z,52.3
2019-04-10T19:13:30.733Z,52.3
2019-04-10T19:18:19.871Z,53.4
2019-04-10T19:23:08.868Z,53.5
2019-04-10T19:28:00.329Z,53.1
2019-04-10T19:32:47.814Z,53.6
2019-04-10T19:37:34.824Z,53.7
2019-04-10T19:42:22.929Z,54.6
2019-04-10T19:47:10.754Z,54.9
2019-04-10T19:52:00.209Z,55.3
2019-04-10T19:56:47.347Z,55.5
2019-04-10T20:01:34.168Z,55.3
2019-04-10T20:06:23.835Z,56
2019-04-10T20:11:12.897Z,55.9
2019-04-10T20:16:00.776Z,55.8
2019-04-10T20:20:48.113Z,55.9
2019-04-10T20:25:36.570Z,56.5
2019-04-10T20:30:23.984Z,57.5
2019-04-10T20:35:12.394Z,57.2
2019-04-10T20:40:03.360Z,56.9
2019-04-10T20:44:51.210Z,58
2019-04-10T20:49:40.586Z,57.5
2019-04-10T20:54:28.703Z,58.4
2019-04-10T20:59:16.176Z,59.1
2019-04-10T21:04:05.300Z,57.5
2019-04-10T21:08:52.750Z,57.6
2019-04-10T21:13:40.740Z,58.1
2019-04-10T21:18:29.296Z,58.2
2019-04-10T21:23:17.148Z,58.1
2019-04-10T21:28:04.782Z,58
2019-04-10T21:32:53.686Z,58.2
2019-04-10T21:37:42.804Z,58.1
2019-04-10T21:42:29.833Z,57.8
2019-04-10T21:47:17.363Z,58.5
2019-04-10T21:52:05.720Z,58.5
2019-04-10T21:56:53.545Z,58
2019-04-10T22:01:42.254Z,58.1
2019-04-10T22:06:30.207Z,59.6
2019-04-10T22:11:17.585Z,58.8
2019-04-10T22:16:05.822Z,59.1
2019-04-10T22:20:52.864Z,60.3
2019-04-10T22:25:39.912Z,59.4
2019-04-10T22:30:27.226Z,59.4
2019-04-10T22:35:15.222Z,59.6
2019-04-10T22:40:04.382Z,60.2
2019-04-10T22:44:52.123Z,60.2
2019-04-10T22:49:39.694Z,60.4
2019-04-10T22:54:26.560Z,61.2
2019-04-10T22:59:13.966Z,62.5
2019-04-10T23:04:03.842Z,62.5
2019-04-10T23:08:51.686Z,61.4
2019-04-10T23:13:40.553Z,62.1
2019-04-10T23:18:27.653Z,63.4
2019-04-10T23:23:16.807Z,63.9
2019-04-10T23:28:04.247Z,64
2019-04-10T23:32:51.454Z,65.6
2019-04-10T23:36:52.151Z,73.4
2019-04-10T23:37:08.775Z,73.8
2019-04-10T23:37:25.337Z,73
2019-04-10T23:37:40.887Z,73
2019-04-10T23:37:57.409Z,72.9
2019-04-10T23:38:13.250Z,71.7
2019-04-10T23:38:28.848Z,70
2019-04-10T23:38:44.363Z,68.6
2019-04-10T23:39:00.067Z,65.2
2019-04-10T23:40:03.030Z,55.2
2019-04-10T23:44:51.240Z,43.9
2019-04-10T23:49:38.996Z,46.1
2019-04-10T23:54:27.136Z,49.4
2019-04-10T23:59:14.959Z,53.3
